sensor_id;sensor_type;location;lat;lon;timestamp;P1;durP1;ratioP1;P2;durP2;ratioP2
57461;SDS011;43308;47.306;8.608;2023-11-19T00:08:53;1.10;;;1.10;;
57461;SDS011;43308;47.306;8.608;2023-11-19T00:11:21;1.70;;;1.40;;
57461;SDS011;43308;47.306;8.608;2023-11-19T00:14:13;1.55;;;1.30;;
57461;SDS011;43308;47.306;8.608;2023-11-19T00:16:40;1.80;;;1.70;;
57461;SDS011;43308;47.306;8.608;2023-11-19T00:19:06;1.77;;;1.60;;
57461;SDS011;43308;47.306;8.608;2023-11-19T00:21:34;2.00;;;1.30;;
57461;SDS011;43308;47.306;8.608;2023-11-19T01:04:38;1.98;;;1.30;;
57461;SDS011;43308;47.306;8.608;2023-11-19T01:07:04;1.92;;;1.60;;
57461;SDS011;43308;47.306;8.608;2023-11-19T01:09:32;1.77;;;1.67;;
57461;SDS011;43308;47.306;8.608;2023-11-19T01:12:00;1.85;;;1.73;;
57461;SDS011;43308;47.306;8.608;2023-11-19T01:14:27;2.30;;;2.10;;
57461;SDS011;43308;47.306;8.608;2023-11-19T01:16:54;3.55;;;2.20;;
57461;SDS011;43308;47.306;8.608;2023-11-19T01:19:33;3.00;;;2.80;;
57461;SDS011;43308;47.306;8.608;2023-11-19T01:22:01;2.50;;;1.90;;
57461;SDS011;43308;47.306;8.608;2023-11-19T01:43:39;1.77;;;1.35;;
57461;SDS011;43308;47.306;8.608;2023-11-19T01:46:12;1.70;;;1.60;;
57461;SDS011;43308;47.306;8.608;2023-11-19T01:48:40;2.10;;;1.90;;
57461;SDS011;43308;47.306;8.608;2023-11-19T01:51:14;1.17;;;1.08;;
57461;SDS011;43308;47.306;8.608;2023-11-19T01:53:42;1.33;;;1.23;;
57461;SDS011;43308;47.306;8.608;2023-11-19T01:56:09;1.20;;;1.10;;
57461;SDS011;43308;47.306;8.608;2023-11-19T01:58:38;1.40;;;1.05;;
57461;SDS011;43308;47.306;8.608;2023-11-19T02:01:05;1.90;;;1.25;;
57461;SDS011;43308;47.306;8.608;2023-11-19T02:33:32;1.40;;;0.85;;
57461;SDS011;43308;47.306;8.608;2023-11-19T02:35:58;0.65;;;0.65;;
57461;SDS011;43308;47.306;8.608;2023-11-19T02:38:24;0.60;;;0.60;;
57461;SDS011;43308;47.306;8.608;2023-11-19T02:40:50;0.70;;;0.70;;
57461;SDS011;43308;47.306;8.608;2023-11-19T02:43:16;0.82;;;0.50;;
57461;SDS011;43308;47.306;8.608;2023-11-19T02:45:42;0.63;;;0.50;;
57461;SDS011;43308;47.306;8.608;2023-11-19T02:48:11;2.55;;;0.80;;
57461;SDS011;43308;47.306;8.608;2023-11-19T02:50:37;0.70;;;0.50;;
57461;SDS011;43308;47.306;8.608;2023-11-19T03:06:33;0.70;;;0.70;;
57461;SDS011;43308;47.306;8.608;2023-11-19T03:14:52;0.88;;;0.88;;
57461;SDS011;43308;47.306;8.608;2023-11-19T03:17:19;1.73;;;0.60;;
57461;SDS011;43308;47.306;8.608;2023-11-19T03:19:46;1.73;;;0.60;;
57461;SDS011;43308;47.306;8.608;2023-11-19T03:22:16;1.50;;;0.60;;
57461;SDS011;43308;47.306;8.608;2023-11-19T03:51:42;1.85;;;0.80;;
57461;SDS011;43308;47.306;8.608;2023-11-19T03:54:08;0.75;;;0.55;;
57461;SDS011;43308;47.306;8.608;2023-11-19T03:56:37;1.10;;;1.00;;
57461;SDS011;43308;47.306;8.608;2023-11-19T03:59:04;0.80;;;0.65;;
57461;SDS011;43308;47.306;8.608;2023-11-19T04:01:30;1.02;;;0.70;;
57461;SDS011;43308;47.306;8.608;2023-11-19T04:03:57;1.20;;;0.65;;
57461;SDS011;43308;47.306;8.608;2023-11-19T04:06:25;0.73;;;0.63;;
57461;SDS011;43308;47.306;8.608;2023-11-19T04:08:53;1.00;;;0.50;;
57461;SDS011;43308;47.306;8.608;2023-11-19T04:11:22;1.17;;;1.08;;
57461;SDS011;43308;47.306;8.608;2023-11-19T04:13:48;0.80;;;0.77;;
57461;SDS011;43308;47.306;8.608;2023-11-19T04:24:21;0.82;;;0.70;;
57461;SDS011;43308;47.306;8.608;2023-11-19T04:26:47;1.10;;;0.60;;
57461;SDS011;43308;47.306;8.608;2023-11-19T04:29:16;1.45;;;0.65;;
57461;SDS011;43308;47.306;8.608;2023-11-19T04:31:43;0.88;;;0.60;;
57461;SDS011;43308;47.306;8.608;2023-11-19T04:47:53;2.00;;;0.65;;
57461;SDS011;43308;47.306;8.608;2023-11-19T04:50:19;0.93;;;0.57;;
57461;SDS011;43308;47.306;8.608;2023-11-19T04:52:44;0.75;;;0.60;;
57461;SDS011;43308;47.306;8.608;2023-11-19T04:55:12;1.42;;;0.52;;
57461;SDS011;43308;47.306;8.608;2023-11-19T04:57:40;0.98;;;0.60;;
57461;SDS011;43308;47.306;8.608;2023-11-19T05:00:06;1.50;;;0.65;;
57461;SDS011;43308;47.306;8.608;2023-11-19T05:02:34;2.35;;;0.90;;
57461;SDS011;43308;47.306;8.608;2023-11-19T05:05:02;0.60;;;0.50;;
57461;SDS011;43308;47.306;8.608;2023-11-19T05:07:32;1.25;;;0.30;;
57461;SDS011;43308;47.306;8.608;2023-11-19T05:12:42;1.40;;;0.68;;
57461;SDS011;43308;47.306;8.608;2023-11-19T05:15:09;0.50;;;0.50;;
57461;SDS011;43308;47.306;8.608;2023-11-19T05:17:37;1.05;;;0.70;;
57461;SDS011;43308;47.306;8.608;2023-11-19T05:27:37;0.70;;;0.50;;
57461;SDS011;43308;47.306;8.608;2023-11-19T05:43:42;2.03;;;0.47;;
57461;SDS011;43308;47.306;8.608;2023-11-19T05:46:12;0.90;;;0.63;;
57461;SDS011;43308;47.306;8.608;2023-11-19T05:48:43;1.27;;;0.70;;
57461;SDS011;43308;47.306;8.608;2023-11-19T05:51:12;2.30;;;0.70;;
57461;SDS011;43308;47.306;8.608;2023-11-19T06:35:14;1.17;;;0.70;;
57461;SDS011;43308;47.306;8.608;2023-11-19T06:37:40;0.70;;;0.60;;
57461;SDS011;43308;47.306;8.608;2023-11-19T06:40:07;1.35;;;0.65;;
57461;SDS011;43308;47.306;8.608;2023-11-19T06:47:57;1.23;;;0.63;;
57461;SDS011;43308;47.306;8.608;2023-11-19T06:50:29;0.63;;;0.43;;
57461;SDS011;43308;47.306;8.608;2023-11-19T06:52:55;1.00;;;0.60;;
57461;SDS011;43308;47.306;8.608;2023-11-19T06:55:21;0.70;;;0.68;;
57461;SDS011;43308;47.306;8.608;2023-11-19T06:57:46;3.03;;;0.60;;
57461;SDS011;43308;47.306;8.608;2023-11-19T07:00:12;0.82;;;0.40;;
57461;SDS011;43308;47.306;8.608;2023-11-19T07:02:38;1.23;;;0.30;;
57461;SDS011;43308;47.306;8.608;2023-11-19T07:05:04;1.35;;;0.40;;
57461;SDS011;43308;47.306;8.608;2023-11-19T07:07:31;1.13;;;0.45;;
57461;SDS011;43308;47.306;8.608;2023-11-19T07:09:58;2.38;;;0.88;;
57461;SDS011;43308;47.306;8.608;2023-11-19T07:12:24;0.77;;;0.40;;
57461;SDS011;43308;47.306;8.608;2023-11-19T07:14:52;0.55;;;0.50;;
57461;SDS011;43308;47.306;8.608;2023-11-19T07:17:18;1.00;;;0.52;;
57461;SDS011;43308;47.306;8.608;2023-11-19T07:19:46;1.30;;;0.50;;
57461;SDS011;43308;47.306;8.608;2023-11-19T07:22:12;1.60;;;0.73;;
57461;SDS011;43308;47.306;8.608;2023-11-19T07:24:41;1.85;;;0.57;;
57461;SDS011;43308;47.306;8.608;2023-11-19T07:27:07;1.02;;;0.50;;
57461;SDS011;43308;47.306;8.608;2023-11-19T07:29:34;2.88;;;0.57;;
57461;SDS011;43308;47.306;8.608;2023-11-19T07:32:00;0.93;;;0.50;;
57461;SDS011;43308;47.306;8.608;2023-11-19T07:34:27;0.85;;;0.50;;
57461;SDS011;43308;47.306;8.608;2023-11-19T07:36:54;3.03;;;1.00;;
57461;SDS011;43308;47.306;8.608;2023-11-19T07:39:22;0.70;;;0.70;;
57461;SDS011;43308;47.306;8.608;2023-11-19T07:41:48;0.85;;;0.70;;
57461;SDS011;43308;47.306;8.608;2023-11-19T07:44:15;0.80;;;0.50;;
57461;SDS011;43308;47.306;8.608;2023-11-19T07:46:40;1.50;;;0.80;;
57461;SDS011;43308;47.306;8.608;2023-11-19T07:49:07;2.80;;;0.70;;
57461;SDS011;43308;47.306;8.608;2023-11-19T07:51:33;1.38;;;0.63;;
57461;SDS011;43308;47.306;8.608;2023-11-19T07:53:59;2.50;;;0.88;;
57461;SDS011;43308;47.306;8.608;2023-11-19T07:56:24;1.63;;;0.85;;
57461;SDS011;43308;47.306;8.608;2023-11-19T07:58:50;1.70;;;0.77;;
57461;SDS011;43308;47.306;8.608;2023-11-19T08:01:20;1.50;;;0.60;;
57461;SDS011;43308;47.306;8.608;2023-11-19T08:03:49;1.10;;;0.60;;
57461;SDS011;43308;47.306;8.608;2023-11-19T08:06:15;1.95;;;0.68;;
57461;SDS011;43308;47.306;8.608;2023-11-19T08:08:41;1.42;;;0.77;;
57461;SDS011;43308;47.306;8.608;2023-11-19T08:11:06;1.90;;;1.02;;
57461;SDS011;43308;47.306;8.608;2023-11-19T08:13:32;1.63;;;0.90;;
57461;SDS011;43308;47.306;8.608;2023-11-19T08:15:58;1.42;;;1.00;;
57461;SDS011;43308;47.306;8.608;2023-11-19T08:18:24;1.13;;;0.88;;
57461;SDS011;43308;47.306;8.608;2023-11-19T08:20:50;1.05;;;0.95;;
57461;SDS011;43308;47.306;8.608;2023-11-19T08:23:19;1.70;;;1.23;;
57461;SDS011;43308;47.306;8.608;2023-11-19T08:25:46;1.70;;;1.00;;
57461;SDS011;43308;47.306;8.608;2023-11-19T08:28:12;1.70;;;0.70;;
57461;SDS011;43308;47.306;8.608;2023-11-19T08:30:38;2.13;;;1.00;;
57461;SDS011;43308;47.306;8.608;2023-11-19T08:33:04;2.25;;;0.90;;
57461;SDS011;43308;47.306;8.608;2023-11-19T08:35:31;1.00;;;0.90;;
57461;SDS011;43308;47.306;8.608;2023-11-19T08:37:57;0.95;;;0.70;;
57461;SDS011;43308;47.306;8.608;2023-11-19T08:40:24;0.57;;;0.57;;
57461;SDS011;43308;47.306;8.608;2023-11-19T08:42:51;2.90;;;0.75;;
57461;SDS011;43308;47.306;8.608;2023-11-19T08:45:17;1.45;;;0.82;;
57461;SDS011;43308;47.306;8.608;2023-11-19T08:47:43;1.35;;;0.75;;
57461;SDS011;43308;47.306;8.608;2023-11-19T08:50:11;3.15;;;0.82;;
57461;SDS011;43308;47.306;8.608;2023-11-19T08:52:37;1.20;;;0.88;;
57461;SDS011;43308;47.306;8.608;2023-11-19T08:55:03;2.25;;;0.80;;
57461;SDS011;43308;47.306;8.608;2023-11-19T08:57:31;1.95;;;0.85;;
57461;SDS011;43308;47.306;8.608;2023-11-19T08:59:58;2.05;;;0.70;;
57461;SDS011;43308;47.306;8.608;2023-11-19T09:02:24;0.73;;;0.50;;
57461;SDS011;43308;47.306;8.608;2023-11-19T09:04:51;1.20;;;0.52;;
57461;SDS011;43308;47.306;8.608;2023-11-19T09:07:16;1.25;;;0.63;;
57461;SDS011;43308;47.306;8.608;2023-11-19T09:09:43;1.25;;;0.75;;
57461;SDS011;43308;47.306;8.608;2023-11-19T09:12:08;0.70;;;0.65;;
57461;SDS011;43308;47.306;8.608;2023-11-19T09:14:34;0.77;;;0.77;;
57461;SDS011;43308;47.306;8.608;2023-11-19T09:17:00;1.08;;;0.60;;
57461;SDS011;43308;47.306;8.608;2023-11-19T09:19:26;2.67;;;0.82;;
57461;SDS011;43308;47.306;8.608;2023-11-19T09:21:52;0.93;;;0.60;;
57461;SDS011;43308;47.306;8.608;2023-11-19T09:24:18;2.45;;;0.80;;
57461;SDS011;43308;47.306;8.608;2023-11-19T09:26:44;0.77;;;0.60;;
57461;SDS011;43308;47.306;8.608;2023-11-19T09:29:10;1.63;;;0.70;;
57461;SDS011;43308;47.306;8.608;2023-11-19T09:31:40;1.23;;;0.90;;
57461;SDS011;43308;47.306;8.608;2023-11-19T09:34:06;3.10;;;1.48;;
57461;SDS011;43308;47.306;8.608;2023-11-19T09:36:32;2.00;;;0.70;;
57461;SDS011;43308;47.306;8.608;2023-11-19T09:38:57;1.42;;;1.00;;
57461;SDS011;43308;47.306;8.608;2023-11-19T09:41:25;2.90;;;0.82;;
57461;SDS011;43308;47.306;8.608;2023-11-19T09:43:53;1.10;;;0.70;;
57461;SDS011;43308;47.306;8.608;2023-11-19T09:46:19;1.92;;;0.85;;
57461;SDS011;43308;47.306;8.608;2023-11-19T09:48:45;0.90;;;0.65;;
57461;SDS011;43308;47.306;8.608;2023-11-19T09:51:11;3.08;;;0.85;;
57461;SDS011;43308;47.306;8.608;2023-11-19T09:53:37;0.73;;;0.70;;
57461;SDS011;43308;47.306;8.608;2023-11-19T09:56:04;1.90;;;1.00;;
57461;SDS011;43308;47.306;8.608;2023-11-19T09:58:31;0.45;;;0.40;;
57461;SDS011;43308;47.306;8.608;2023-11-19T10:00:58;1.35;;;0.75;;
57461;SDS011;43308;47.306;8.608;2023-11-19T10:03:25;0.82;;;0.68;;
57461;SDS011;43308;47.306;8.608;2023-11-19T10:05:55;1.55;;;0.70;;
57461;SDS011;43308;47.306;8.608;2023-11-19T10:08:21;1.08;;;0.98;;
57461;SDS011;43308;47.306;8.608;2023-11-19T10:10:47;2.33;;;0.73;;
57461;SDS011;43308;47.306;8.608;2023-11-19T10:13:22;1.60;;;1.00;;
57461;SDS011;43308;47.306;8.608;2023-11-19T10:15:51;0.63;;;0.47;;
57461;SDS011;43308;47.306;8.608;2023-11-19T10:18:23;1.88;;;0.63;;
57461;SDS011;43308;47.306;8.608;2023-11-19T10:20:49;1.35;;;0.85;;
57461;SDS011;43308;47.306;8.608;2023-11-19T10:23:15;1.58;;;0.98;;
57461;SDS011;43308;47.306;8.608;2023-11-19T10:25:41;0.95;;;0.68;;
57461;SDS011;43308;47.306;8.608;2023-11-19T10:28:08;0.98;;;0.90;;
57461;SDS011;43308;47.306;8.608;2023-11-19T10:30:34;1.50;;;0.60;;
57461;SDS011;43308;47.306;8.608;2023-11-19T10:35:37;1.45;;;0.55;;
57461;SDS011;43308;47.306;8.608;2023-11-19T10:38:18;0.80;;;0.73;;
57461;SDS011;43308;47.306;8.608;2023-11-19T10:40:44;1.42;;;0.80;;
57461;SDS011;43308;47.306;8.608;2023-11-19T10:43:10;0.90;;;0.73;;
57461;SDS011;43308;47.306;8.608;2023-11-19T10:45:36;1.58;;;0.65;;
57461;SDS011;43308;47.306;8.608;2023-11-19T10:48:03;3.70;;;0.50;;
57461;SDS011;43308;47.306;8.608;2023-11-19T10:50:36;1.10;;;0.65;;
57461;SDS011;43308;47.306;8.608;2023-11-19T10:53:04;0.60;;;0.47;;
57461;SDS011;43308;47.306;8.608;2023-11-19T10:55:31;1.20;;;1.08;;
57461;SDS011;43308;47.306;8.608;2023-11-19T10:58:03;1.55;;;0.60;;
57461;SDS011;43308;47.306;8.608;2023-11-19T11:00:37;1.27;;;0.63;;
57461;SDS011;43308;47.306;8.608;2023-11-19T11:03:15;1.02;;;0.93;;
57461;SDS011;43308;47.306;8.608;2023-11-19T11:05:46;1.00;;;0.70;;
57461;SDS011;43308;47.306;8.608;2023-11-19T11:08:13;1.60;;;1.00;;
57461;SDS011;43308;47.306;8.608;2023-11-19T11:10:42;0.52;;;0.50;;
57461;SDS011;43308;47.306;8.608;2023-11-19T11:13:10;1.50;;;0.50;;
57461;SDS011;43308;47.306;8.608;2023-11-19T11:15:37;0.80;;;0.50;;
57461;SDS011;43308;47.306;8.608;2023-11-19T11:18:03;1.08;;;0.77;;
57461;SDS011;43308;47.306;8.608;2023-11-19T11:20:33;1.13;;;0.60;;
57461;SDS011;43308;47.306;8.608;2023-11-19T11:26:13;2.00;;;0.43;;
57461;SDS011;43308;47.306;8.608;2023-11-19T11:29:05;0.57;;;0.30;;
57461;SDS011;43308;47.306;8.608;2023-11-19T11:31:44;0.90;;;0.38;;
57461;SDS011;43308;47.306;8.608;2023-11-19T11:34:35;1.35;;;0.30;;
57461;SDS011;43308;47.306;8.608;2023-11-19T11:37:16;1.15;;;0.40;;
57461;SDS011;43308;47.306;8.608;2023-11-19T11:39:45;1.83;;;0.30;;
57461;SDS011;43308;47.306;8.608;2023-11-19T11:45:15;1.30;;;0.57;;
57461;SDS011;43308;47.306;8.608;2023-11-19T11:50:14;0.40;;;0.35;;
57461;SDS011;43308;47.306;8.608;2023-11-19T11:53:27;0.63;;;0.57;;
57461;SDS011;43308;47.306;8.608;2023-11-19T11:58:08;0.95;;;0.57;;
57461;SDS011;43308;47.306;8.608;2023-11-19T12:00:38;1.10;;;0.40;;
57461;SDS011;43308;47.306;8.608;2023-11-19T12:03:06;0.75;;;0.60;;
57461;SDS011;43308;47.306;8.608;2023-11-19T12:05:33;1.25;;;0.50;;
57461;SDS011;43308;47.306;8.608;2023-11-19T12:08:04;1.35;;;0.50;;
57461;SDS011;43308;47.306;8.608;2023-11-19T12:10:54;1.50;;;0.50;;
57461;SDS011;43308;47.306;8.608;2023-11-19T12:13:26;1.67;;;0.57;;
57461;SDS011;43308;47.306;8.608;2023-11-19T12:16:11;0.70;;;0.35;;
57461;SDS011;43308;47.306;8.608;2023-11-19T12:18:38;0.40;;;0.40;;
57461;SDS011;43308;47.306;8.608;2023-11-19T12:21:06;0.60;;;0.50;;
57461;SDS011;43308;47.306;8.608;2023-11-19T12:23:33;0.63;;;0.52;;
57461;SDS011;43308;47.306;8.608;2023-11-19T12:25:59;1.13;;;0.75;;
57461;SDS011;43308;47.306;8.608;2023-11-19T12:28:25;0.82;;;0.55;;
57461;SDS011;43308;47.306;8.608;2023-11-19T12:30:54;0.70;;;0.43;;
57461;SDS011;43308;47.306;8.608;2023-11-19T12:33:35;0.75;;;0.50;;
57461;SDS011;43308;47.306;8.608;2023-11-19T12:36:01;1.30;;;0.70;;
57461;SDS011;43308;47.306;8.608;2023-11-19T12:38:30;0.60;;;0.40;;
57461;SDS011;43308;47.306;8.608;2023-11-19T12:41:03;1.85;;;0.45;;
57461;SDS011;43308;47.306;8.608;2023-11-19T12:43:30;0.80;;;0.30;;
57461;SDS011;43308;47.306;8.608;2023-11-19T12:45:57;2.55;;;0.45;;
57461;SDS011;43308;47.306;8.608;2023-11-19T12:48:23;0.95;;;0.30;;
57461;SDS011;43308;47.306;8.608;2023-11-19T12:50:56;0.82;;;0.43;;
57461;SDS011;43308;47.306;8.608;2023-11-19T12:53:26;1.75;;;0.38;;
57461;SDS011;43308;47.306;8.608;2023-11-19T12:55:53;1.70;;;0.40;;
57461;SDS011;43308;47.306;8.608;2023-11-19T13:01:03;1.52;;;0.60;;
57461;SDS011;43308;47.306;8.608;2023-11-19T13:03:31;1.13;;;0.43;;
57461;SDS011;43308;47.306;8.608;2023-11-19T13:06:04;0.30;;;0.30;;
57461;SDS011;43308;47.306;8.608;2023-11-19T13:08:45;0.65;;;0.55;;
57461;SDS011;43308;47.306;8.608;2023-11-19T13:11:34;1.02;;;0.93;;
57461;SDS011;43308;47.306;8.608;2023-11-19T13:14:02;0.57;;;0.57;;
57461;SDS011;43308;47.306;8.608;2023-11-19T13:16:35;1.55;;;0.40;;
57461;SDS011;43308;47.306;8.608;2023-11-19T13:19:02;0.70;;;0.60;;
57461;SDS011;43308;47.306;8.608;2023-11-19T13:21:28;0.65;;;0.32;;
57461;SDS011;43308;47.306;8.608;2023-11-19T13:23:55;1.55;;;0.52;;
57461;SDS011;43308;47.306;8.608;2023-11-19T13:26:21;1.50;;;0.75;;
57461;SDS011;43308;47.306;8.608;2023-11-19T13:28:47;0.50;;;0.40;;
57461;SDS011;43308;47.306;8.608;2023-11-19T13:31:13;0.40;;;0.30;;
57461;SDS011;43308;47.306;8.608;2023-11-19T13:33:39;1.05;;;0.30;;
57461;SDS011;43308;47.306;8.608;2023-11-19T13:36:05;1.55;;;0.20;;
57461;SDS011;43308;47.306;8.608;2023-11-19T13:38:36;1.55;;;0.45;;
57461;SDS011;43308;47.306;8.608;2023-11-19T13:41:02;0.30;;;0.10;;
57461;SDS011;43308;47.306;8.608;2023-11-19T13:43:29;0.28;;;0.28;;
57461;SDS011;43308;47.306;8.608;2023-11-19T13:45:56;0.75;;;0.30;;
57461;SDS011;43308;47.306;8.608;2023-11-19T13:48:23;0.35;;;0.20;;
57461;SDS011;43308;47.306;8.608;2023-11-19T13:50:50;1.45;;;0.20;;
57461;SDS011;43308;47.306;8.608;2023-11-19T13:53:16;1.17;;;0.13;;
57461;SDS011;43308;47.306;8.608;2023-11-19T13:55:42;0.20;;;0.10;;
57461;SDS011;43308;47.306;8.608;2023-11-19T13:58:09;0.57;;;0.20;;
57461;SDS011;43308;47.306;8.608;2023-11-19T14:00:35;0.32;;;0.10;;
57461;SDS011;43308;47.306;8.608;2023-11-19T14:03:01;1.65;;;0.35;;
57461;SDS011;43308;47.306;8.608;2023-11-19T14:05:27;0.25;;;0.20;;
57461;SDS011;43308;47.306;8.608;2023-11-19T14:07:53;1.17;;;0.30;;
57461;SDS011;43308;47.306;8.608;2023-11-19T14:10:22;1.13;;;0.20;;
57461;SDS011;43308;47.306;8.608;2023-11-19T14:12:48;0.28;;;0.15;;
57461;SDS011;43308;47.306;8.608;2023-11-19T14:15:15;0.45;;;0.30;;
57461;SDS011;43308;47.306;8.608;2023-11-19T14:17:42;0.10;;;0.10;;
57461;SDS011;43308;47.306;8.608;2023-11-19T14:20:09;0.20;;;0.20;;
57461;SDS011;43308;47.306;8.608;2023-11-19T14:22:47;2.55;;;0.10;;
57461;SDS011;43308;47.306;8.608;2023-11-19T14:25:15;0.85;;;0.25;;
57461;SDS011;43308;47.306;8.608;2023-11-19T14:27:41;0.22;;;0.10;;
57461;SDS011;43308;47.306;8.608;2023-11-19T14:30:08;1.08;;;0.75;;
57461;SDS011;43308;47.306;8.608;2023-11-19T14:32:40;0.30;;;0.20;;
57461;SDS011;43308;47.306;8.608;2023-11-19T14:35:08;0.45;;;0.10;;
57461;SDS011;43308;47.306;8.608;2023-11-19T14:37:34;0.10;;;0.10;;
57461;SDS011;43308;47.306;8.608;2023-11-19T14:40:00;1.55;;;0.10;;
57461;SDS011;43308;47.306;8.608;2023-11-19T14:42:29;0.20;;;0.10;;
57461;SDS011;43308;47.306;8.608;2023-11-19T14:44:55;0.10;;;0.10;;
57461;SDS011;43308;47.306;8.608;2023-11-19T14:47:21;0.20;;;0.10;;
57461;SDS011;43308;47.306;8.608;2023-11-19T14:49:48;0.75;;;0.25;;
57461;SDS011;43308;47.306;8.608;2023-11-19T14:52:14;0.68;;;0.15;;
57461;SDS011;43308;47.306;8.608;2023-11-19T14:54:39;0.13;;;0.10;;
57461;SDS011;43308;47.306;8.608;2023-11-19T14:57:05;0.88;;;0.20;;
57461;SDS011;43308;47.306;8.608;2023-11-19T14:59:35;0.85;;;0.10;;
57461;SDS011;43308;47.306;8.608;2023-11-19T15:02:01;0.55;;;0.10;;
57461;SDS011;43308;47.306;8.608;2023-11-19T15:04:28;0.90;;;0.10;;
57461;SDS011;43308;47.306;8.608;2023-11-19T15:06:58;0.90;;;0.10;;
57461;SDS011;43308;47.306;8.608;2023-11-19T15:09:24;0.30;;;0.15;;
57461;SDS011;43308;47.306;8.608;2023-11-19T15:11:53;2.35;;;0.20;;
57461;SDS011;43308;47.306;8.608;2023-11-19T15:14:19;0.05;;;0.00;;
57461;SDS011;43308;47.306;8.608;2023-11-19T15:16:45;0.05;;;0.03;;
57461;SDS011;43308;47.306;8.608;2023-11-19T15:19:12;0.20;;;0.10;;
57461;SDS011;43308;47.306;8.608;2023-11-19T15:21:42;0.77;;;0.10;;
57461;SDS011;43308;47.306;8.608;2023-11-19T15:24:08;0.30;;;0.10;;
57461;SDS011;43308;47.306;8.608;2023-11-19T15:26:34;0.03;;;0.00;;
57461;SDS011;43308;47.306;8.608;2023-11-19T15:29:04;0.03;;;0.03;;
57461;SDS011;43308;47.306;8.608;2023-11-19T15:31:30;0.75;;;0.10;;
57461;SDS011;43308;47.306;8.608;2023-11-19T15:33:57;0.00;;;0.00;;
57461;SDS011;43308;47.306;8.608;2023-11-19T15:36:23;0.20;;;0.10;;
57461;SDS011;43308;47.306;8.608;2023-11-19T15:38:49;0.40;;;0.20;;
57461;SDS011;43308;47.306;8.608;2023-11-19T15:41:16;0.10;;;0.03;;
57461;SDS011;43308;47.306;8.608;2023-11-19T15:43:42;0.65;;;0.10;;
57461;SDS011;43308;47.306;8.608;2023-11-19T15:46:08;0.10;;;0.10;;
57461;SDS011;43308;47.306;8.608;2023-11-19T15:48:34;0.50;;;0.17;;
57461;SDS011;43308;47.306;8.608;2023-11-19T15:51:00;0.43;;;0.22;;
57461;SDS011;43308;47.306;8.608;2023-11-19T15:53:27;0.20;;;0.05;;
57461;SDS011;43308;47.306;8.608;2023-11-19T15:55:53;0.38;;;0.10;;
57461;SDS011;43308;47.306;8.608;2023-11-19T15:58:19;0.75;;;0.15;;
57461;SDS011;43308;47.306;8.608;2023-11-19T16:00:47;0.63;;;0.30;;
57461;SDS011;43308;47.306;8.608;2023-11-19T16:03:13;0.68;;;0.10;;
57461;SDS011;43308;47.306;8.608;2023-11-19T16:05:40;1.52;;;0.30;;
57461;SDS011;43308;47.306;8.608;2023-11-19T16:08:06;2.03;;;0.82;;
57461;SDS011;43308;47.306;8.608;2023-11-19T16:10:33;1.60;;;0.60;;
57461;SDS011;43308;47.306;8.608;2023-11-19T16:12:59;0.38;;;0.30;;
57461;SDS011;43308;47.306;8.608;2023-11-19T16:15:24;2.78;;;1.20;;
57461;SDS011;43308;47.306;8.608;2023-11-19T16:17:50;3.97;;;1.88;;
57461;SDS011;43308;47.306;8.608;2023-11-19T16:20:16;1.88;;;1.77;;
57461;SDS011;43308;47.306;8.608;2023-11-19T16:22:41;1.88;;;0.68;;
57461;SDS011;43308;47.306;8.608;2023-11-19T16:25:08;0.47;;;0.40;;
57461;SDS011;43308;47.306;8.608;2023-11-19T16:27:34;1.15;;;0.40;;
57461;SDS011;43308;47.306;8.608;2023-11-19T16:30:00;1.90;;;0.60;;
57461;SDS011;43308;47.306;8.608;2023-11-19T16:32:26;1.90;;;0.80;;
57461;SDS011;43308;47.306;8.608;2023-11-19T16:34:52;2.17;;;0.90;;
57461;SDS011;43308;47.306;8.608;2023-11-19T16:37:18;1.00;;;0.85;;
57461;SDS011;43308;47.306;8.608;2023-11-19T16:39:46;0.70;;;0.50;;
57461;SDS011;43308;47.306;8.608;2023-11-19T16:42:12;0.85;;;0.75;;
57461;SDS011;43308;47.306;8.608;2023-11-19T16:44:39;0.68;;;0.40;;
57461;SDS011;43308;47.306;8.608;2023-11-19T16:47:09;1.95;;;0.60;;
57461;SDS011;43308;47.306;8.608;2023-11-19T16:49:35;0.90;;;0.40;;
57461;SDS011;43308;47.306;8.608;2023-11-19T16:52:00;0.45;;;0.28;;
57461;SDS011;43308;47.306;8.608;2023-11-19T16:54:30;0.85;;;0.30;;
57461;SDS011;43308;47.306;8.608;2023-11-19T16:56:57;0.50;;;0.35;;
57461;SDS011;43308;47.306;8.608;2023-11-19T16:59:23;0.60;;;0.50;;
57461;SDS011;43308;47.306;8.608;2023-11-19T17:01:48;1.75;;;1.08;;
57461;SDS011;43308;47.306;8.608;2023-11-19T17:04:15;0.47;;;0.30;;
57461;SDS011;43308;47.306;8.608;2023-11-19T17:06:42;0.40;;;0.30;;
57461;SDS011;43308;47.306;8.608;2023-11-19T17:09:08;0.80;;;0.30;;
57461;SDS011;43308;47.306;8.608;2023-11-19T17:11:41;0.38;;;0.30;;
57461;SDS011;43308;47.306;8.608;2023-11-19T17:14:10;0.70;;;0.10;;
57461;SDS011;43308;47.306;8.608;2023-11-19T17:16:36;0.10;;;0.00;;
57461;SDS011;43308;47.306;8.608;2023-11-19T17:19:06;1.05;;;0.08;;
57461;SDS011;43308;47.306;8.608;2023-11-19T17:21:31;0.35;;;0.22;;
57461;SDS011;43308;47.306;8.608;2023-11-19T17:23:57;0.40;;;0.40;;
57461;SDS011;43308;47.306;8.608;2023-11-19T17:26:23;2.35;;;2.17;;
57461;SDS011;43308;47.306;8.608;2023-11-19T17:28:49;1.38;;;1.27;;
57461;SDS011;43308;47.306;8.608;2023-11-19T17:31:15;0.50;;;0.50;;
57461;SDS011;43308;47.306;8.608;2023-11-19T17:33:42;1.05;;;0.30;;
57461;SDS011;43308;47.306;8.608;2023-11-19T17:36:08;0.40;;;0.40;;
57461;SDS011;43308;47.306;8.608;2023-11-19T17:38:34;1.45;;;1.00;;
57461;SDS011;43308;47.306;8.608;2023-11-19T17:40:59;0.90;;;0.90;;
57461;SDS011;43308;47.306;8.608;2023-11-19T17:43:25;1.73;;;1.55;;
57461;SDS011;43308;47.306;8.608;2023-11-19T17:45:51;5.80;;;3.22;;
57461;SDS011;43308;47.306;8.608;2023-11-19T17:48:18;4.85;;;1.83;;
57461;SDS011;43308;47.306;8.608;2023-11-19T17:50:43;10.70;;;6.57;;
57461;SDS011;43308;47.306;8.608;2023-11-19T17:53:09;3.35;;;2.38;;
57461;SDS011;43308;47.306;8.608;2023-11-19T17:55:35;5.40;;;3.70;;
57461;SDS011;43308;47.306;8.608;2023-11-19T17:58:01;13.80;;;6.45;;
57461;SDS011;43308;47.306;8.608;2023-11-19T18:00:28;2.13;;;1.70;;
57461;SDS011;43308;47.306;8.608;2023-11-19T18:02:53;1.00;;;0.73;;
57461;SDS011;43308;47.306;8.608;2023-11-19T18:05:19;3.15;;;0.30;;
57461;SDS011;43308;47.306;8.608;2023-11-19T18:07:47;1.15;;;0.43;;
57461;SDS011;43308;47.306;8.608;2023-11-19T18:10:13;0.57;;;0.47;;
57461;SDS011;43308;47.306;8.608;2023-11-19T18:12:40;0.28;;;0.28;;
57461;SDS011;43308;47.306;8.608;2023-11-19T18:15:06;1.23;;;0.40;;
57461;SDS011;43308;47.306;8.608;2023-11-19T18:17:33;0.30;;;0.30;;
57461;SDS011;43308;47.306;8.608;2023-11-19T18:20:02;0.52;;;0.47;;
57461;SDS011;43308;47.306;8.608;2023-11-19T18:22:29;0.60;;;0.60;;
57461;SDS011;43308;47.306;8.608;2023-11-19T18:24:56;0.65;;;0.65;;
57461;SDS011;43308;47.306;8.608;2023-11-19T18:27:21;0.20;;;0.20;;
57461;SDS011;43308;47.306;8.608;2023-11-19T18:29:47;0.40;;;0.30;;
57461;SDS011;43308;47.306;8.608;2023-11-19T18:32:14;0.60;;;0.28;;
57461;SDS011;43308;47.306;8.608;2023-11-19T18:34:40;1.65;;;0.20;;
57461;SDS011;43308;47.306;8.608;2023-11-19T18:37:06;0.43;;;0.22;;
57461;SDS011;43308;47.306;8.608;2023-11-19T18:39:33;0.20;;;0.20;;
57461;SDS011;43308;47.306;8.608;2023-11-19T18:41:59;1.08;;;0.15;;
57461;SDS011;43308;47.306;8.608;2023-11-19T18:44:25;0.30;;;0.20;;
57461;SDS011;43308;47.306;8.608;2023-11-19T18:46:52;0.50;;;0.20;;
57461;SDS011;43308;47.306;8.608;2023-11-19T18:49:18;0.20;;;0.20;;
57461;SDS011;43308;47.306;8.608;2023-11-19T18:51:44;0.43;;;0.20;;
57461;SDS011;43308;47.306;8.608;2023-11-19T19:29:21;0.40;;;0.15;;
57461;SDS011;43308;47.306;8.608;2023-11-19T19:40:36;0.30;;;0.20;;
57461;SDS011;43308;47.306;8.608;2023-11-19T19:43:02;0.60;;;0.40;;
57461;SDS011;43308;47.306;8.608;2023-11-19T19:45:29;0.40;;;0.22;;
57461;SDS011;43308;47.306;8.608;2023-11-19T20:23:21;0.63;;;0.20;;